createdAt,value
2022-12-14T06:50:24.163Z,109.90
2022-12-14T06:53:26.265Z,108.65
2022-12-14T06:56:28.669Z,114.43
2022-12-14T06:59:30.369Z,112.72
2022-12-14T07:02:32.241Z,113.20
2022-12-14T07:05:34.244Z,107.03
2022-12-14T07:08:38.526Z,101.78
2022-12-14T07:11:41.006Z,99.70
2022-12-14T07:14:42.752Z,96.28
2022-12-14T07:17:44.703Z,102.18
2022-12-14T07:21:09.627Z,102.50
2022-12-14T07:24:14.654Z,115.53
2022-12-14T07:30:20.399Z,106.45
2022-12-14T07:33:22.438Z,103.68
2022-12-14T07:36:26.344Z,109.07
2022-12-14T07:39:28.200Z,109.78
2022-12-14T07:42:29.849Z,99.68
2022-12-14T07:45:31.644Z,112.15
2022-12-14T07:48:33.951Z,108.35
2022-12-14T07:51:38.327Z,105.95
2022-12-14T07:54:40.121Z,99.38
2022-12-14T07:57:42.054Z,101.13
2022-12-14T08:00:43.810Z,93.95
2022-12-14T08:03:48.971Z,92.95
2022-12-14T08:12:24.531Z,104.60
2022-12-14T08:15:26.492Z,96.18
2022-12-14T08:18:28.290Z,95.90
2022-12-14T08:21:30.852Z,92.65
2022-12-14T08:24:32.819Z,90.90
2022-12-14T08:27:34.552Z,98.60
2022-12-14T08:30:39.173Z,99.95
2022-12-14T08:33:42.623Z,91.45
2022-12-14T08:36:44.571Z,89.25
2022-12-14T08:39:49.467Z,97.72
2022-12-14T08:45:55.747Z,92.88
2022-12-14T08:48:58.802Z,86.88
2022-12-14T08:52:00.992Z,107.97
2022-12-14T08:55:02.930Z,100.90
2022-12-14T08:58:04.777Z,93.28
2022-12-14T09:01:13.829Z,93.38
2022-12-14T09:04:15.784Z,100.35
2022-12-14T09:07:17.714Z,92.85
2022-12-14T09:10:19.391Z,89.97
2022-12-14T09:13:23.630Z,99.38
2022-12-14T09:16:26.515Z,96.78
2022-12-14T09:19:29.690Z,94.80
2022-12-14T09:22:31.894Z,93.65
2022-12-14T09:25:34.102Z,96.45
2022-12-14T09:28:38.399Z,97.05
2022-12-14T09:31:40.662Z,98.07
2022-12-14T09:34:42.448Z,95.75
2022-12-14T09:37:44.369Z,97.32
2022-12-14T09:40:55.826Z,108.43
2022-12-14T09:44:25.552Z,100.63
2022-12-14T09:47:35.291Z,87.18
2022-12-14T09:50:38.899Z,90.15
2022-12-14T09:53:42.138Z,83.82
2022-12-14T09:56:44.250Z,82.88
2022-12-14T09:59:54.602Z,78.80
2022-12-14T10:03:30.169Z,82.15
2022-12-14T10:07:07.689Z,80.40
2022-12-14T10:10:32.995Z,74.43
2022-12-14T10:13:56.940Z,82.00
2022-12-14T10:17:38.687Z,89.93
2022-12-14T10:20:50.489Z,82.68
2022-12-14T10:23:58.117Z,91.45
2022-12-14T10:27:01.721Z,86.88
2022-12-14T10:30:07.545Z,87.93
2022-12-14T10:33:24.178Z,79.55
2022-12-14T10:36:36.119Z,82.10
2022-12-14T10:40:29.232Z,81.65
2022-12-14T10:44:01.970Z,94.07
2022-12-14T10:47:33.315Z,85.78
2022-12-14T10:51:05.032Z,82.70
2022-12-14T10:54:21.074Z,75.35
2022-12-14T10:57:26.428Z,80.25
2022-12-14T11:00:28.269Z,77.65
2022-12-14T11:03:30.318Z,85.22
2022-12-14T11:06:33.866Z,83.22
2022-12-14T11:09:37.350Z,74.72
2022-12-14T11:12:39.102Z,73.38
2022-12-14T11:15:45.479Z,79.72
2022-12-14T11:18:57.994Z,72.18
2022-12-14T11:22:15.820Z,74.28
2022-12-14T11:25:40.494Z,71.55
2022-12-14T11:28:49.768Z,72.68
2022-12-14T11:31:53.495Z,77.28
2022-12-14T11:34:58.355Z,70.43
2022-12-14T11:38:00.584Z,73.88
2022-12-14T11:41:10.648Z,80.20
2022-12-14T11:44:16.373Z,77.93
2022-12-14T11:47:21.597Z,68.63
2022-12-14T11:50:25.401Z,76.97
2022-12-14T11:53:27.087Z,74.88
2022-12-14T11:56:29.526Z,101.90
2022-12-14T11:59:42.970Z,91.28
2022-12-14T12:02:59.893Z,100.53
2022-12-14T12:06:05.515Z,112.50
2022-12-14T12:09:25.734Z,90.40
2022-12-14T12:12:27.673Z,91.75
2022-12-14T12:15:40.302Z,94.55
2022-12-14T12:18:54.157Z,100.80
2022-12-14T12:21:59.542Z,93.78
2022-12-14T12:28:32.787Z,96.43
2022-12-14T12:31:40.533Z,99.28
2022-12-14T12:35:11.925Z,104.43
2022-12-14T12:38:25.999Z,92.68
2022-12-14T12:41:55.813Z,105.07
2022-12-14T12:45:24.072Z,102.10
2022-12-14T12:48:49.005Z,118.22
2022-12-14T12:51:58.926Z,95.90
2022-12-14T12:55:03.633Z,103.05
2022-12-14T12:58:09.962Z,103.20
2022-12-14T13:01:32.727Z,98.60
2022-12-14T13:04:39.269Z,91.15
2022-12-14T13:07:46.429Z,99.10
2022-12-14T13:14:31.331Z,93.10
2022-12-14T13:17:38.312Z,107.30
2022-12-14T13:20:40.205Z,92.75
2022-12-14T13:23:45.648Z,95.97
2022-12-14T13:27:23.964Z,84.57
2022-12-14T13:30:34.997Z,89.55
2022-12-14T13:34:08.745Z,85.53
2022-12-14T13:37:38.028Z,83.88
2022-12-14T13:41:03.388Z,90.72
2022-12-14T13:44:40.192Z,82.32
2022-12-14T13:47:51.333Z,85.82
2022-12-14T13:51:03.896Z,80.32
2022-12-14T13:54:18.169Z,86.60
2022-12-14T13:57:24.843Z,96.72
2022-12-14T14:00:47.511Z,93.35
2022-12-14T14:03:53.919Z,87.40
2022-12-14T14:07:22.864Z,99.97
2022-12-14T14:10:32.132Z,102.40
2022-12-14T14:13:33.849Z,103.65
2022-12-14T14:16:45.108Z,108.45
2022-12-14T14:19:49.676Z,107.70
2022-12-14T14:23:12.730Z,107.85
2022-12-14T14:26:24.977Z,103.13
2022-12-14T14:29:29.748Z,121.70
2022-12-14T14:32:42.048Z,119.03
2022-12-14T14:35:43.896Z,120.90
2022-12-14T14:38:46.826Z,115.18
2022-12-14T14:41:52.235Z,113.60
2022-12-14T14:44:58.213Z,99.38
2022-12-14T14:48:02.862Z,83.15
2022-12-14T14:51:20.592Z,80.50
2022-12-14T14:55:11.177Z,85.90
2022-12-14T14:58:22.100Z,88.32
2022-12-14T15:01:27.994Z,96.25
2022-12-14T15:04:51.844Z,86.65
2022-12-14T15:07:58.990Z,89.15
2022-12-14T15:11:05.327Z,88.43
2022-12-14T15:14:25.208Z,89.57
2022-12-14T15:17:27.012Z,76.88
2022-12-14T15:20:30.019Z,82.10
2022-12-14T15:23:52.571Z,83.13
2022-12-14T15:26:54.455Z,86.93
2022-12-14T15:30:03.212Z,85.80
2022-12-14T15:33:09.099Z,81.25
2022-12-14T15:36:15.949Z,86.15
2022-12-14T15:39:39.773Z,76.25
2022-12-14T15:43:01.287Z,84.75
2022-12-14T15:46:03.623Z,83.68
2022-12-14T15:49:08.862Z,83.93
2022-12-14T15:55:34.014Z,83.63
2022-12-14T15:58:38.926Z,84.55
2022-12-14T16:04:49.700Z,86.40
2022-12-14T16:07:56.004Z,86.40
2022-12-14T16:11:01.199Z,88.28
2022-12-14T16:14:15.999Z,84.00
2022-12-14T16:17:23.091Z,86.68
2022-12-14T16:20:29.682Z,84.15
2022-12-14T16:23:37.965Z,85.05
2022-12-14T16:26:43.834Z,89.25
2022-12-14T16:30:15.069Z,90.30
2022-12-14T16:33:20.296Z,98.18
2022-12-14T16:36:26.366Z,84.35
2022-12-14T16:39:39.204Z,88.57
2022-12-14T16:42:44.689Z,81.15
2022-12-14T16:46:09.282Z,82.97
2022-12-14T16:49:38.858Z,94.73
2022-12-14T16:52:40.528Z,90.55
2022-12-14T16:56:05.412Z,90.38
2022-12-14T16:59:20.868Z,108.55
